sensor_id;sensor_type;location;lat;lon;timestamp;temperature;humidity
48744;DHT22;34538;48.836;9.174;2024-02-26T00:00:12;6.80;99.90
48744;DHT22;34538;48.836;9.174;2024-02-26T00:02:39;6.80;99.90
48744;DHT22;34538;48.836;9.174;2024-02-26T00:05:08;6.80;99.90
48744;DHT22;34538;48.836;9.174;2024-02-26T00:07:35;6.80;99.90
48744;DHT22;34538;48.836;9.174;2024-02-26T00:10:02;6.80;99.90
48744;DHT22;34538;48.836;9.174;2024-02-26T00:12:29;6.90;99.90
48744;DHT22;34538;48.836;9.174;2024-02-26T00:14:56;6.80;99.90
48744;DHT22;34538;48.836;9.174;2024-02-26T00:17:25;6.90;99.90
48744;DHT22;34538;48.836;9.174;2024-02-26T00:19:52;6.90;99.90
48744;DHT22;34538;48.836;9.174;2024-02-26T00:22:19;6.80;99.90
48744;DHT22;34538;48.836;9.174;2024-02-26T00:24:47;6.90;99.90
48744;DHT22;34538;48.836;9.174;2024-02-26T00:27:14;6.90;99.90
48744;DHT22;34538;48.836;9.174;2024-02-26T00:29:41;6.90;99.90
48744;DHT22;34538;48.836;9.174;2024-02-26T00:32:08;7.00;99.90
48744;DHT22;34538;48.836;9.174;2024-02-26T00:34:37;7.00;99.90
48744;DHT22;34538;48.836;9.174;2024-02-26T00:37:04;7.00;99.90
48744;DHT22;34538;48.836;9.174;2024-02-26T00:39:31;7.10;99.90
48744;DHT22;34538;48.836;9.174;2024-02-26T00:41:58;7.20;99.90
48744;DHT22;34538;48.836;9.174;2024-02-26T00:44:25;7.20;99.90
48744;DHT22;34538;48.836;9.174;2024-02-26T00:46:53;7.30;99.90
48744;DHT22;34538;48.836;9.174;2024-02-26T00:49:20;7.30;99.90
48744;DHT22;34538;48.836;9.174;2024-02-26T00:51:48;7.30;99.90
48744;DHT22;34538;48.836;9.174;2024-02-26T00:54:15;7.30;99.90
48744;DHT22;34538;48.836;9.174;2024-02-26T00:56:42;7.30;99.90
48744;DHT22;34538;48.836;9.174;2024-02-26T00:59:09;7.30;99.90
48744;DHT22;34538;48.836;9.174;2024-02-26T01:01:36;7.30;99.90
48744;DHT22;34538;48.836;9.174;2024-02-26T01:04:03;7.30;99.90
48744;DHT22;34538;48.836;9.174;2024-02-26T01:06:30;7.30;99.90
48744;DHT22;34538;48.836;9.174;2024-02-26T01:08:58;7.20;99.90
48744;DHT22;34538;48.836;9.174;2024-02-26T01:11:25;7.20;99.90
48744;DHT22;34538;48.836;9.174;2024-02-26T01:13:52;7.30;99.90
48744;DHT22;34538;48.836;9.174;2024-02-26T01:16:22;7.30;99.90
48744;DHT22;34538;48.836;9.174;2024-02-26T01:18:49;7.30;99.90
48744;DHT22;34538;48.836;9.174;2024-02-26T01:21:16;7.30;99.90
48744;DHT22;34538;48.836;9.174;2024-02-26T01:23:43;7.30;99.90
48744;DHT22;34538;48.836;9.174;2024-02-26T01:26:11;7.40;99.90
48744;DHT22;34538;48.836;9.174;2024-02-26T01:28:39;7.40;99.90
48744;DHT22;34538;48.836;9.174;2024-02-26T01:31:06;7.40;99.90
48744;DHT22;34538;48.836;9.174;2024-02-26T01:33:34;7.30;99.90
48744;DHT22;34538;48.836;9.174;2024-02-26T01:36:01;7.30;99.90
48744;DHT22;34538;48.836;9.174;2024-02-26T01:38:28;7.30;99.90
48744;DHT22;34538;48.836;9.174;2024-02-26T01:40:55;7.40;99.90
48744;DHT22;34538;48.836;9.174;2024-02-26T01:43:23;7.40;99.90
48744;DHT22;34538;48.836;9.174;2024-02-26T01:45:50;7.40;99.90
48744;DHT22;34538;48.836;9.174;2024-02-26T01:48:17;7.30;99.90
48744;DHT22;34538;48.836;9.174;2024-02-26T01:50:44;7.30;99.90
48744;DHT22;34538;48.836;9.174;2024-02-26T01:53:12;7.30;99.90
48744;DHT22;34538;48.836;9.174;2024-02-26T01:55:39;7.20;99.90
48744;DHT22;34538;48.836;9.174;2024-02-26T01:58:07;7.20;99.90
48744;DHT22;34538;48.836;9.174;2024-02-26T02:00:36;7.20;99.90
48744;DHT22;34538;48.836;9.174;2024-02-26T02:03:03;7.20;99.90
48744;DHT22;34538;48.836;9.174;2024-02-26T02:05:31;7.30;99.90
48744;DHT22;34538;48.836;9.174;2024-02-26T02:07:59;7.30;99.90
48744;DHT22;34538;48.836;9.174;2024-02-26T02:10:27;7.30;99.90
48744;DHT22;34538;48.836;9.174;2024-02-26T02:12:54;7.30;99.90
48744;DHT22;34538;48.836;9.174;2024-02-26T02:15:20;7.30;99.90
48744;DHT22;34538;48.836;9.174;2024-02-26T02:17:49;7.30;99.90
48744;DHT22;34538;48.836;9.174;2024-02-26T02:20:17;7.30;99.90
48744;DHT22;34538;48.836;9.174;2024-02-26T02:22:45;7.30;99.90
48744;DHT22;34538;48.836;9.174;2024-02-26T02:25:12;7.30;99.90
48744;DHT22;34538;48.836;9.174;2024-02-26T02:27:40;7.30;99.90
48744;DHT22;34538;48.836;9.174;2024-02-26T02:30:08;7.30;99.90
48744;DHT22;34538;48.836;9.174;2024-02-26T02:32:36;7.30;99.90
48744;DHT22;34538;48.836;9.174;2024-02-26T02:35:05;7.30;99.90
48744;DHT22;34538;48.836;9.174;2024-02-26T02:37:32;7.30;99.90
48744;DHT22;34538;48.836;9.174;2024-02-26T02:40:00;7.30;99.90
48744;DHT22;34538;48.836;9.174;2024-02-26T02:42:28;7.30;99.90
48744;DHT22;34538;48.836;9.174;2024-02-26T02:44:55;7.30;99.90
48744;DHT22;34538;48.836;9.174;2024-02-26T02:47:22;7.30;99.90
48744;DHT22;34538;48.836;9.174;2024-02-26T02:49:48;7.40;99.90
48744;DHT22;34538;48.836;9.174;2024-02-26T02:52:15;7.40;99.90
48744;DHT22;34538;48.836;9.174;2024-02-26T02:54:42;7.40;99.90
48744;DHT22;34538;48.836;9.174;2024-02-26T02:57:11;7.40;99.90
48744;DHT22;34538;48.836;9.174;2024-02-26T02:59:38;7.40;99.90
48744;DHT22;34538;48.836;9.174;2024-02-26T03:02:05;7.30;99.90
48744;DHT22;34538;48.836;9.174;2024-02-26T03:04:32;7.40;99.90
48744;DHT22;34538;48.836;9.174;2024-02-26T03:06:59;7.40;99.90
48744;DHT22;34538;48.836;9.174;2024-02-26T03:09:26;7.30;99.90
48744;DHT22;34538;48.836;9.174;2024-02-26T03:11:53;7.40;99.90
48744;DHT22;34538;48.836;9.174;2024-02-26T03:14:21;7.40;99.90
48744;DHT22;34538;48.836;9.174;2024-02-26T03:16:47;7.40;99.90
48744;DHT22;34538;48.836;9.174;2024-02-26T03:19:14;7.40;99.90
48744;DHT22;34538;48.836;9.174;2024-02-26T03:21:41;7.40;99.90
48744;DHT22;34538;48.836;9.174;2024-02-26T03:24:08;7.40;99.90
48744;DHT22;34538;48.836;9.174;2024-02-26T03:26:36;7.40;99.90
48744;DHT22;34538;48.836;9.174;2024-02-26T03:29:03;7.30;99.90
48744;DHT22;34538;48.836;9.174;2024-02-26T03:31:31;7.30;99.90
48744;DHT22;34538;48.836;9.174;2024-02-26T03:33:58;7.30;99.90
48744;DHT22;34538;48.836;9.174;2024-02-26T03:36:25;7.30;99.90
48744;DHT22;34538;48.836;9.174;2024-02-26T03:38:52;7.30;99.90
48744;DHT22;34538;48.836;9.174;2024-02-26T03:41:19;7.30;99.90
48744;DHT22;34538;48.836;9.174;2024-02-26T03:43:46;7.30;99.90
48744;DHT22;34538;48.836;9.174;2024-02-26T03:46:12;7.30;99.90
48744;DHT22;34538;48.836;9.174;2024-02-26T03:48:41;7.30;99.90
48744;DHT22;34538;48.836;9.174;2024-02-26T03:51:08;7.30;99.90
48744;DHT22;34538;48.836;9.174;2024-02-26T03:53:35;7.30;99.90
48744;DHT22;34538;48.836;9.174;2024-02-26T03:56:04;7.20;99.90
48744;DHT22;34538;48.836;9.174;2024-02-26T03:58:30;7.20;99.90
48744;DHT22;34538;48.836;9.174;2024-02-26T04:00:58;7.20;99.90
48744;DHT22;34538;48.836;9.174;2024-02-26T04:03:25;7.20;99.90
48744;DHT22;34538;48.836;9.174;2024-02-26T04:05:53;7.20;99.90
48744;DHT22;34538;48.836;9.174;2024-02-26T04:08:20;7.20;99.90
48744;DHT22;34538;48.836;9.174;2024-02-26T04:10:47;7.20;99.90
48744;DHT22;34538;48.836;9.174;2024-02-26T04:13:14;7.20;99.90
48744;DHT22;34538;48.836;9.174;2024-02-26T04:15:41;7.20;99.90
48744;DHT22;34538;48.836;9.174;2024-02-26T04:18:08;7.20;99.90
48744;DHT22;34538;48.836;9.174;2024-02-26T04:20:35;7.20;99.90
48744;DHT22;34538;48.836;9.174;2024-02-26T04:23:04;7.20;99.90
48744;DHT22;34538;48.836;9.174;2024-02-26T04:25:31;7.20;99.90
48744;DHT22;34538;48.836;9.174;2024-02-26T04:27:57;7.20;99.90
48744;DHT22;34538;48.836;9.174;2024-02-26T04:30:24;7.20;99.90
48744;DHT22;34538;48.836;9.174;2024-02-26T04:32:51;7.20;99.90
48744;DHT22;34538;48.836;9.174;2024-02-26T04:35:18;7.30;99.90
48744;DHT22;34538;48.836;9.174;2024-02-26T04:37:45;7.30;99.90
48744;DHT22;34538;48.836;9.174;2024-02-26T04:40:13;7.40;99.90
48744;DHT22;34538;48.836;9.174;2024-02-26T04:42:41;7.40;99.90
48744;DHT22;34538;48.836;9.174;2024-02-26T04:45:08;7.40;99.90
48744;DHT22;34538;48.836;9.174;2024-02-26T04:47:35;7.40;99.90
48744;DHT22;34538;48.836;9.174;2024-02-26T04:50:02;7.40;99.90
48744;DHT22;34538;48.836;9.174;2024-02-26T04:52:29;7.40;99.90
48744;DHT22;34538;48.836;9.174;2024-02-26T04:54:56;7.40;99.90
48744;DHT22;34538;48.836;9.174;2024-02-26T04:57:26;7.40;99.90
48744;DHT22;34538;48.836;9.174;2024-02-26T04:59:53;7.40;99.90
48744;DHT22;34538;48.836;9.174;2024-02-26T05:02:20;7.40;99.90
48744;DHT22;34538;48.836;9.174;2024-02-26T05:04:47;7.40;99.90
48744;DHT22;34538;48.836;9.174;2024-02-26T05:07:14;7.40;99.90
48744;DHT22;34538;48.836;9.174;2024-02-26T05:09:43;7.40;99.90
48744;DHT22;34538;48.836;9.174;2024-02-26T05:12:10;7.40;99.90
48744;DHT22;34538;48.836;9.174;2024-02-26T05:14:38;7.40;99.90
48744;DHT22;34538;48.836;9.174;2024-02-26T05:17:05;7.50;99.90
48744;DHT22;34538;48.836;9.174;2024-02-26T05:19:32;7.50;99.90
48744;DHT22;34538;48.836;9.174;2024-02-26T05:21:59;7.50;99.90
48744;DHT22;34538;48.836;9.174;2024-02-26T05:24:26;7.50;99.90
48744;DHT22;34538;48.836;9.174;2024-02-26T05:26:54;7.50;99.90
48744;DHT22;34538;48.836;9.174;2024-02-26T05:29:21;7.50;99.90
48744;DHT22;34538;48.836;9.174;2024-02-26T05:31:49;7.40;99.90
48744;DHT22;34538;48.836;9.174;2024-02-26T05:34:16;7.50;99.90
48744;DHT22;34538;48.836;9.174;2024-02-26T05:36:43;7.50;99.90
48744;DHT22;34538;48.836;9.174;2024-02-26T05:39:10;7.50;99.90
48744;DHT22;34538;48.836;9.174;2024-02-26T05:41:38;7.50;99.90
48744;DHT22;34538;48.836;9.174;2024-02-26T05:44:04;7.50;99.90
48744;DHT22;34538;48.836;9.174;2024-02-26T05:46:35;7.50;99.90
48744;DHT22;34538;48.836;9.174;2024-02-26T05:49:03;7.40;99.90
48744;DHT22;34538;48.836;9.174;2024-02-26T05:51:30;7.40;99.90
48744;DHT22;34538;48.836;9.174;2024-02-26T05:53:57;7.50;99.90
48744;DHT22;34538;48.836;9.174;2024-02-26T05:56:24;7.40;99.90
48744;DHT22;34538;48.836;9.174;2024-02-26T05:58:51;7.40;99.90
48744;DHT22;34538;48.836;9.174;2024-02-26T06:01:20;7.40;99.90
48744;DHT22;34538;48.836;9.174;2024-02-26T06:03:47;7.40;99.90
48744;DHT22;34538;48.836;9.174;2024-02-26T06:06:15;7.30;99.90
48744;DHT22;34538;48.836;9.174;2024-02-26T06:08:42;7.30;99.90
48744;DHT22;34538;48.836;9.174;2024-02-26T06:11:09;7.30;99.90
48744;DHT22;34538;48.836;9.174;2024-02-26T06:13:36;7.20;99.90
48744;DHT22;34538;48.836;9.174;2024-02-26T06:16:03;7.20;99.90
48744;DHT22;34538;48.836;9.174;2024-02-26T06:18:30;7.20;99.90
48744;DHT22;34538;48.836;9.174;2024-02-26T06:20:57;7.20;99.90
48744;DHT22;34538;48.836;9.174;2024-02-26T06:23:26;7.20;99.90
48744;DHT22;34538;48.836;9.174;2024-02-26T06:25:53;7.10;99.90
48744;DHT22;34538;48.836;9.174;2024-02-26T06:28:20;7.10;99.90
48744;DHT22;34538;48.836;9.174;2024-02-26T06:30:47;7.10;99.90
48744;DHT22;34538;48.836;9.174;2024-02-26T06:33:13;7.10;99.90
48744;DHT22;34538;48.836;9.174;2024-02-26T06:35:40;7.00;99.90
48744;DHT22;34538;48.836;9.174;2024-02-26T06:38:07;7.00;99.90
48744;DHT22;34538;48.836;9.174;2024-02-26T06:40:36;7.00;99.90
48744;DHT22;34538;48.836;9.174;2024-02-26T06:43:03;7.00;99.90
48744;DHT22;34538;48.836;9.174;2024-02-26T06:45:30;6.90;99.90
48744;DHT22;34538;48.836;9.174;2024-02-26T06:47:58;6.90;99.90
48744;DHT22;34538;48.836;9.174;2024-02-26T06:50:25;7.00;99.90
48744;DHT22;34538;48.836;9.174;2024-02-26T06:52:52;7.00;99.90
48744;DHT22;34538;48.836;9.174;2024-02-26T06:55:19;6.90;99.90
48744;DHT22;34538;48.836;9.174;2024-02-26T06:57:48;6.90;99.90
48744;DHT22;34538;48.836;9.174;2024-02-26T07:00:16;7.00;99.90
48744;DHT22;34538;48.836;9.174;2024-02-26T07:02:43;7.00;99.90
48744;DHT22;34538;48.836;9.174;2024-02-26T07:05:10;7.00;99.90
48744;DHT22;34538;48.836;9.174;2024-02-26T07:07:37;7.00;99.90
48744;DHT22;34538;48.836;9.174;2024-02-26T07:10:04;7.10;99.90
48744;DHT22;34538;48.836;9.174;2024-02-26T07:12:32;7.10;99.90
48744;DHT22;34538;48.836;9.174;2024-02-26T07:15:00;7.10;99.90
48744;DHT22;34538;48.836;9.174;2024-02-26T07:17:28;7.20;99.90
48744;DHT22;34538;48.836;9.174;2024-02-26T07:19:55;7.20;99.90
48744;DHT22;34538;48.836;9.174;2024-02-26T07:22:22;7.20;99.90
48744;DHT22;34538;48.836;9.174;2024-02-26T07:24:49;7.20;99.90
48744;DHT22;34538;48.836;9.174;2024-02-26T07:27:16;7.20;99.90
48744;DHT22;34538;48.836;9.174;2024-02-26T07:29:43;7.30;99.90
48744;DHT22;34538;48.836;9.174;2024-02-26T07:32:11;7.30;99.90
48744;DHT22;34538;48.836;9.174;2024-02-26T07:34:39;7.30;99.90
48744;DHT22;34538;48.836;9.174;2024-02-26T07:37:07;7.40;99.90
48744;DHT22;34538;48.836;9.174;2024-02-26T07:39:34;7.40;99.90
48744;DHT22;34538;48.836;9.174;2024-02-26T07:42:02;7.50;99.90
48744;DHT22;34538;48.836;9.174;2024-02-26T07:44:29;7.50;99.90
48744;DHT22;34538;48.836;9.174;2024-02-26T07:46:56;7.50;99.90
48744;DHT22;34538;48.836;9.174;2024-02-26T07:49:24;7.50;99.90
48744;DHT22;34538;48.836;9.174;2024-02-26T07:51:51;7.60;99.90
48744;DHT22;34538;48.836;9.174;2024-02-26T07:54:18;7.70;99.90
48744;DHT22;34538;48.836;9.174;2024-02-26T07:56:45;7.70;99.90
48744;DHT22;34538;48.836;9.174;2024-02-26T07:59:11;7.70;99.90
48744;DHT22;34538;48.836;9.174;2024-02-26T08:01:38;7.70;99.90
48744;DHT22;34538;48.836;9.174;2024-02-26T08:04:07;7.80;99.90
48744;DHT22;34538;48.836;9.174;2024-02-26T08:06:35;7.90;99.90
48744;DHT22;34538;48.836;9.174;2024-02-26T08:09:02;7.90;99.90
48744;DHT22;34538;48.836;9.174;2024-02-26T08:11:30;8.00;99.90
48744;DHT22;34538;48.836;9.174;2024-02-26T08:13:56;8.00;99.90
48744;DHT22;34538;48.836;9.174;2024-02-26T08:16:24;8.00;99.90
48744;DHT22;34538;48.836;9.174;2024-02-26T08:18:51;8.00;99.90
48744;DHT22;34538;48.836;9.174;2024-02-26T08:21:18;8.10;99.90
48744;DHT22;34538;48.836;9.174;2024-02-26T08:23:46;8.10;99.90
48744;DHT22;34538;48.836;9.174;2024-02-26T08:26:13;8.10;99.90
48744;DHT22;34538;48.836;9.174;2024-02-26T08:28:40;8.20;99.90
48744;DHT22;34538;48.836;9.174;2024-02-26T08:31:06;8.30;99.90
48744;DHT22;34538;48.836;9.174;2024-02-26T08:33:33;8.30;99.90
48744;DHT22;34538;48.836;9.174;2024-02-26T08:36:04;8.40;99.90
48744;DHT22;34538;48.836;9.174;2024-02-26T08:38:31;8.40;99.90
48744;DHT22;34538;48.836;9.174;2024-02-26T08:41:01;8.40;99.90
48744;DHT22;34538;48.836;9.174;2024-02-26T08:43:28;8.50;99.90
48744;DHT22;34538;48.836;9.174;2024-02-26T08:45:55;8.50;99.90
48744;DHT22;34538;48.836;9.174;2024-02-26T08:48:21;8.60;99.90
48744;DHT22;34538;48.836;9.174;2024-02-26T08:50:48;8.60;99.90
48744;DHT22;34538;48.836;9.174;2024-02-26T08:53:16;8.70;99.90
48744;DHT22;34538;48.836;9.174;2024-02-26T08:55:43;8.70;99.90
48744;DHT22;34538;48.836;9.174;2024-02-26T08:58:11;8.80;99.90
48744;DHT22;34538;48.836;9.174;2024-02-26T09:00:38;8.90;99.90
48744;DHT22;34538;48.836;9.174;2024-02-26T09:03:05;9.00;99.90
48744;DHT22;34538;48.836;9.174;2024-02-26T09:05:32;9.00;99.90
48744;DHT22;34538;48.836;9.174;2024-02-26T09:07:58;9.10;99.90
48744;DHT22;34538;48.836;9.174;2024-02-26T09:10:25;9.10;99.90
48744;DHT22;34538;48.836;9.174;2024-02-26T09:12:52;9.20;99.90
48744;DHT22;34538;48.836;9.174;2024-02-26T09:15:22;9.20;99.90
48744;DHT22;34538;48.836;9.174;2024-02-26T09:17:49;9.20;99.90
48744;DHT22;34538;48.836;9.174;2024-02-26T09:20:17;9.20;99.90
48744;DHT22;34538;48.836;9.174;2024-02-26T09:22:45;9.30;99.90
48744;DHT22;34538;48.836;9.174;2024-02-26T09:25:13;9.20;99.90
48744;DHT22;34538;48.836;9.174;2024-02-26T09:27:41;9.20;99.90
48744;DHT22;34538;48.836;9.174;2024-02-26T09:30:10;9.20;99.90
48744;DHT22;34538;48.836;9.174;2024-02-26T09:32:39;9.20;99.90
48744;DHT22;34538;48.836;9.174;2024-02-26T09:35:06;9.20;99.90
48744;DHT22;34538;48.836;9.174;2024-02-26T09:37:33;9.20;99.90
48744;DHT22;34538;48.836;9.174;2024-02-26T09:40:03;9.20;99.90
48744;DHT22;34538;48.836;9.174;2024-02-26T09:42:31;9.20;99.90
48744;DHT22;34538;48.836;9.174;2024-02-26T09:45:00;9.10;99.90
48744;DHT22;34538;48.836;9.174;2024-02-26T09:47:31;9.20;99.90
48744;DHT22;34538;48.836;9.174;2024-02-26T09:50:01;9.20;99.90
48744;DHT22;34538;48.836;9.174;2024-02-26T09:52:31;9.30;99.90
48744;DHT22;34538;48.836;9.174;2024-02-26T09:55:00;9.40;99.90
48744;DHT22;34538;48.836;9.174;2024-02-26T09:57:29;9.40;99.90
48744;DHT22;34538;48.836;9.174;2024-02-26T09:59:59;9.50;99.90
48744;DHT22;34538;48.836;9.174;2024-02-26T10:02:27;9.50;99.90
48744;DHT22;34538;48.836;9.174;2024-02-26T10:04:55;9.60;99.90
48744;DHT22;34538;48.836;9.174;2024-02-26T10:07:27;9.70;99.90
48744;DHT22;34538;48.836;9.174;2024-02-26T10:09:55;9.80;99.90
48744;DHT22;34538;48.836;9.174;2024-02-26T10:12:23;9.90;99.90
48744;DHT22;34538;48.836;9.174;2024-02-26T10:14:51;10.00;99.90
48744;DHT22;34538;48.836;9.174;2024-02-26T10:17:19;10.10;99.90
48744;DHT22;34538;48.836;9.174;2024-02-26T10:19:46;10.20;99.90
48744;DHT22;34538;48.836;9.174;2024-02-26T10:22:13;10.30;99.90
48744;DHT22;34538;48.836;9.174;2024-02-26T10:24:41;10.30;99.90
48744;DHT22;34538;48.836;9.174;2024-02-26T10:27:08;10.40;99.90
48744;DHT22;34538;48.836;9.174;2024-02-26T10:29:36;10.40;99.90
48744;DHT22;34538;48.836;9.174;2024-02-26T10:32:03;10.50;99.90
48744;DHT22;34538;48.836;9.174;2024-02-26T10:34:31;10.60;99.90
48744;DHT22;34538;48.836;9.174;2024-02-26T10:36:57;10.70;99.90
48744;DHT22;34538;48.836;9.174;2024-02-26T10:39:28;10.80;99.90
48744;DHT22;34538;48.836;9.174;2024-02-26T10:41:56;10.90;99.90
48744;DHT22;34538;48.836;9.174;2024-02-26T10:44:23;11.00;99.90
48744;DHT22;34538;48.836;9.174;2024-02-26T10:46:52;11.10;99.90
48744;DHT22;34538;48.836;9.174;2024-02-26T10:49:20;11.10;99.90
48744;DHT22;34538;48.836;9.174;2024-02-26T10:51:54;11.20;99.90
48744;DHT22;34538;48.836;9.174;2024-02-26T10:54:25;11.20;99.90
48744;DHT22;34538;48.836;9.174;2024-02-26T10:56:53;11.30;99.90
48744;DHT22;34538;48.836;9.174;2024-02-26T10:59:23;11.30;99.90
48744;DHT22;34538;48.836;9.174;2024-02-26T11:01:51;11.40;99.90
48744;DHT22;34538;48.836;9.174;2024-02-26T11:04:18;11.40;99.90
48744;DHT22;34538;48.836;9.174;2024-02-26T11:06:46;11.50;99.90
48744;DHT22;34538;48.836;9.174;2024-02-26T11:09:15;11.60;99.90
48744;DHT22;34538;48.836;9.174;2024-02-26T11:11:42;11.60;99.90
48744;DHT22;34538;48.836;9.174;2024-02-26T11:14:10;11.70;99.90
48744;DHT22;34538;48.836;9.174;2024-02-26T11:16:40;11.70;99.90
48744;DHT22;34538;48.836;9.174;2024-02-26T11:19:09;11.70;99.90
48744;DHT22;34538;48.836;9.174;2024-02-26T11:21:36;11.80;99.90
48744;DHT22;34538;48.836;9.174;2024-02-26T11:24:08;11.80;99.90
48744;DHT22;34538;48.836;9.174;2024-02-26T11:26:42;11.80;99.90
48744;DHT22;34538;48.836;9.174;2024-02-26T11:29:12;11.80;99.90
48744;DHT22;34538;48.836;9.174;2024-02-26T11:31:42;11.70;99.90
48744;DHT22;34538;48.836;9.174;2024-02-26T11:34:09;11.70;99.90
48744;DHT22;34538;48.836;9.174;2024-02-26T11:36:36;11.70;99.90
48744;DHT22;34538;48.836;9.174;2024-02-26T11:39:04;11.80;99.90
48744;DHT22;34538;48.836;9.174;2024-02-26T11:41:32;11.80;99.90
48744;DHT22;34538;48.836;9.174;2024-02-26T11:44:01;11.80;99.90
48744;DHT22;34538;48.836;9.174;2024-02-26T11:46:31;11.80;99.90
48744;DHT22;34538;48.836;9.174;2024-02-26T11:49:00;11.90;99.90
48744;DHT22;34538;48.836;9.174;2024-02-26T11:51:28;11.90;99.90
48744;DHT22;34538;48.836;9.174;2024-02-26T11:53:58;12.00;99.90
48744;DHT22;34538;48.836;9.174;2024-02-26T11:56:26;12.00;99.90
48744;DHT22;34538;48.836;9.174;2024-02-26T11:58:58;12.10;99.90
48744;DHT22;34538;48.836;9.174;2024-02-26T12:01:42;12.20;99.90
48744;DHT22;34538;48.836;9.174;2024-02-26T12:04:16;12.20;99.90
48744;DHT22;34538;48.836;9.174;2024-02-26T12:06:54;12.20;99.90
48744;DHT22;34538;48.836;9.174;2024-02-26T12:09:32;12.30;99.90
48744;DHT22;34538;48.836;9.174;2024-02-26T12:12:01;12.30;99.90
48744;DHT22;34538;48.836;9.174;2024-02-26T12:14:28;12.30;99.90
48744;DHT22;34538;48.836;9.174;2024-02-26T12:16:55;12.30;99.90
48744;DHT22;34538;48.836;9.174;2024-02-26T12:19:25;12.30;99.90
48744;DHT22;34538;48.836;9.174;2024-02-26T12:21:52;12.30;99.90
48744;DHT22;34538;48.836;9.174;2024-02-26T12:24:20;12.30;99.90
48744;DHT22;34538;48.836;9.174;2024-02-26T12:26:48;12.40;99.90
48744;DHT22;34538;48.836;9.174;2024-02-26T12:29:14;12.40;99.90
48744;DHT22;34538;48.836;9.174;2024-02-26T12:31:42;12.50;99.90
48744;DHT22;34538;48.836;9.174;2024-02-26T12:34:09;12.60;99.90
48744;DHT22;34538;48.836;9.174;2024-02-26T12:36:37;12.60;99.90
48744;DHT22;34538;48.836;9.174;2024-02-26T12:39:06;12.70;99.90
48744;DHT22;34538;48.836;9.174;2024-02-26T12:41:34;12.70;99.90
48744;DHT22;34538;48.836;9.174;2024-02-26T12:44:01;12.80;99.90
48744;DHT22;34538;48.836;9.174;2024-02-26T12:46:28;12.80;99.90
48744;DHT22;34538;48.836;9.174;2024-02-26T12:48:56;12.90;99.90
48744;DHT22;34538;48.836;9.174;2024-02-26T12:51:25;12.90;99.90
48744;DHT22;34538;48.836;9.174;2024-02-26T12:53:54;13.00;99.90
48744;DHT22;34538;48.836;9.174;2024-02-26T12:56:21;13.10;99.90
48744;DHT22;34538;48.836;9.174;2024-02-26T12:58:50;13.10;99.90
48744;DHT22;34538;48.836;9.174;2024-02-26T13:01:21;13.20;99.90
48744;DHT22;34538;48.836;9.174;2024-02-26T13:03:49;13.20;99.90
48744;DHT22;34538;48.836;9.174;2024-02-26T13:06:17;13.30;99.90
48744;DHT22;34538;48.836;9.174;2024-02-26T13:08:44;13.30;99.90
48744;DHT22;34538;48.836;9.174;2024-02-26T13:11:12;13.30;99.90
48744;DHT22;34538;48.836;9.174;2024-02-26T13:13:39;13.30;99.90
48744;DHT22;34538;48.836;9.174;2024-02-26T13:16:09;13.30;99.90
48744;DHT22;34538;48.836;9.174;2024-02-26T13:18:36;13.40;99.90
48744;DHT22;34538;48.836;9.174;2024-02-26T13:21:08;13.40;99.90
48744;DHT22;34538;48.836;9.174;2024-02-26T13:23:35;13.50;99.90
48744;DHT22;34538;48.836;9.174;2024-02-26T13:26:03;13.50;99.90
48744;DHT22;34538;48.836;9.174;2024-02-26T13:28:32;13.50;99.90
48744;DHT22;34538;48.836;9.174;2024-02-26T13:31:00;13.50;99.90
48744;DHT22;34538;48.836;9.174;2024-02-26T13:33:29;13.50;99.90
48744;DHT22;34538;48.836;9.174;2024-02-26T13:35:56;13.50;99.90
48744;DHT22;34538;48.836;9.174;2024-02-26T13:38:24;13.50;99.90
48744;DHT22;34538;48.836;9.174;2024-02-26T13:40:51;13.50;99.90
48744;DHT22;34538;48.836;9.174;2024-02-26T13:43:18;13.50;99.90
48744;DHT22;34538;48.836;9.174;2024-02-26T13:45:47;13.50;99.90
48744;DHT22;34538;48.836;9.174;2024-02-26T13:48:14;13.50;99.90
48744;DHT22;34538;48.836;9.174;2024-02-26T13:50:42;13.50;99.90
48744;DHT22;34538;48.836;9.174;2024-02-26T13:53:10;13.50;99.90
48744;DHT22;34538;48.836;9.174;2024-02-26T13:55:39;13.50;99.90
48744;DHT22;34538;48.836;9.174;2024-02-26T13:58:08;13.60;99.90
48744;DHT22;34538;48.836;9.174;2024-02-26T14:00:38;13.60;99.90
48744;DHT22;34538;48.836;9.174;2024-02-26T14:03:08;13.60;99.90
48744;DHT22;34538;48.836;9.174;2024-02-26T14:05:35;13.60;99.90
48744;DHT22;34538;48.836;9.174;2024-02-26T14:08:02;13.60;99.90
48744;DHT22;34538;48.836;9.174;2024-02-26T14:10:29;13.60;99.90
48744;DHT22;34538;48.836;9.174;2024-02-26T14:12:58;13.70;99.90
48744;DHT22;34538;48.836;9.174;2024-02-26T14:15:25;13.70;99.90
48744;DHT22;34538;48.836;9.174;2024-02-26T14:17:52;13.70;99.90
48744;DHT22;34538;48.836;9.174;2024-02-26T14:20:23;13.80;99.90
48744;DHT22;34538;48.836;9.174;2024-02-26T14:22:50;13.70;99.90
48744;DHT22;34538;48.836;9.174;2024-02-26T14:25:19;13.80;99.90
48744;DHT22;34538;48.836;9.174;2024-02-26T14:27:46;13.80;99.90
48744;DHT22;34538;48.836;9.174;2024-02-26T14:30:13;13.80;99.90
48744;DHT22;34538;48.836;9.174;2024-02-26T14:32:41;13.80;99.90
48744;DHT22;34538;48.836;9.174;2024-02-26T14:35:08;13.80;99.90
48744;DHT22;34538;48.836;9.174;2024-02-26T14:37:36;13.90;99.90
48744;DHT22;34538;48.836;9.174;2024-02-26T14:40:04;13.90;99.90
48744;DHT22;34538;48.836;9.174;2024-02-26T14:42:31;13.90;99.90
48744;DHT22;34538;48.836;9.174;2024-02-26T14:44:58;13.90;99.90
48744;DHT22;34538;48.836;9.174;2024-02-26T14:47:25;13.90;99.90
48744;DHT22;34538;48.836;9.174;2024-02-26T14:49:52;13.90;99.90
48744;DHT22;34538;48.836;9.174;2024-02-26T14:52:19;13.90;99.90
48744;DHT22;34538;48.836;9.174;2024-02-26T14:54:48;13.90;99.90
48744;DHT22;34538;48.836;9.174;2024-02-26T14:57:17;13.90;99.90
48744;DHT22;34538;48.836;9.174;2024-02-26T14:59:44;13.80;99.90
48744;DHT22;34538;48.836;9.174;2024-02-26T15:02:11;13.80;99.90
48744;DHT22;34538;48.836;9.174;2024-02-26T15:04:38;13.80;99.90
48744;DHT22;34538;48.836;9.174;2024-02-26T15:07:05;13.70;99.90
48744;DHT22;34538;48.836;9.174;2024-02-26T15:09:32;13.80;99.90
48744;DHT22;34538;48.836;9.174;2024-02-26T15:12:01;13.70;99.90
48744;DHT22;34538;48.836;9.174;2024-02-26T15:14:30;13.70;99.90
48744;DHT22;34538;48.836;9.174;2024-02-26T15:16:57;13.70;99.90
48744;DHT22;34538;48.836;9.174;2024-02-26T15:19:24;13.70;99.90
48744;DHT22;34538;48.836;9.174;2024-02-26T15:21:51;13.60;99.90
48744;DHT22;34538;48.836;9.174;2024-02-26T15:24:18;13.60;99.90
48744;DHT22;34538;48.836;9.174;2024-02-26T15:26:45;13.60;99.90
48744;DHT22;34538;48.836;9.174;2024-02-26T15:29:13;13.50;99.90
48744;DHT22;34538;48.836;9.174;2024-02-26T15:31:40;13.50;99.90
48744;DHT22;34538;48.836;9.174;2024-02-26T15:34:07;13.50;99.90
48744;DHT22;34538;48.836;9.174;2024-02-26T15:36:34;13.50;99.90
48744;DHT22;34538;48.836;9.174;2024-02-26T15:39:02;13.50;99.90
48744;DHT22;34538;48.836;9.174;2024-02-26T15:41:30;13.40;99.90